This is the latest recevied weather packets stored in our database for station/object KE1THD. If no packets are shown the sender has not sent any weather packets the latest 10 day(s).
| Time | Temp. | Humidity | Pressure | Rain* | Wind** | Luminosity | Snow |
|---|---|---|---|---|---|---|---|
| 1777139844 | 22.22° C | 49% | 1014.2 hPa | 0 mm | - | 729 W/m² | - |
| 1777139541 | 21.11° C | 53% | 1014.3 hPa | 0 mm | - | 727 W/m² | - |
| 1777139235 | 20.56° C | 54% | 1014.4 hPa | 0 mm | - | 725 W/m² | - |
| 1777138933 | 20.56° C | 55% | 1014.4 hPa | 0 mm | - | 725 W/m² | - |
| 1777138629 | 20° C | 55% | 1014.6 hPa | 0 mm | - | 721 W/m² | - |
| 1777138324 | 20.56° C | 55% | 1014.5 hPa | 0 mm | - | 676 W/m² | - |
| 1777138021 | 20° C | 56% | 1014.5 hPa | 0 mm | - | 693 W/m² | - |
| 1777137717 | 20° C | 59% | 1014.5 hPa | 0 mm | - | 706 W/m² | - |
| 1777137413 | 19.44° C | 59% | 1014.6 hPa | 0 mm | - | 677 W/m² | - |
| 1777137110 | 19.44° C | 61% | 1014.5 hPa | 0 mm | - | 682 W/m² | - |
| 1777136806 | 18.89° C | 61% | 1014.8 hPa | 0 mm | - | 672 W/m² | - |
| 1777136498 | 18.89° C | 59% | 1014.7 hPa | 0 mm | - | 669 W/m² | - |
| 1777136196 | 19.44° C | 60% | 1014.6 hPa | 0 mm | - | 687 W/m² | - |
| 1777135893 | 18.89° C | 62% | 1014.7 hPa | 0 mm | - | 724 W/m² | - |
| 1777135588 | 18.89° C | 62% | 1014.7 hPa | 0 mm | - | 728 W/m² | - |
| 1777135285 | 20° C | 58% | 1014.6 hPa | 0 mm | - | 730 W/m² | - |
| 1777134982 | 19.44° C | 60% | 1015.1 hPa | 0 mm | - | 730 W/m² | - |
| 1777134679 | 18.33° C | 61% | 1014.7 hPa | 0 mm | - | 707 W/m² | - |
| 1777134374 | 18.33° C | 65% | 1014.8 hPa | 0 mm | - | 722 W/m² | - |
| 1777134071 | 17.78° C | 64% | 1015.1 hPa | 0 mm | - | 720 W/m² | - |
| 1777133768 | 18.33° C | 62% | 1015.1 hPa | 0 mm | - | 721 W/m² | - |
| 1777133462 | 18.33° C | 64% | 1015.4 hPa | 0 mm | - | 741 W/m² | - |
| 1777133157 | 17.22° C | 65% | 1015.5 hPa | 0 mm | - | 737 W/m² | - |
| 1777132853 | 17.78° C | 63% | 1015.4 hPa | 0 mm | - | 745 W/m² | - |
| 1777132549 | 17.22° C | 66% | 1015.3 hPa | 0 mm | - | 741 W/m² | - |
* Rain latest hour (hover to see other rain measurements)
** Current wind speed in m/s (hover to see current wind gust speed)